Time;durP1;ratioP1;P1;durP2;ratioP2;P2;SDS_P1;SDS_P2;PMS_P1;PMS_P2;Temp;Humidity;BMP_temperature;BMP_pressure;BME280_temperature;BME280_humidity;BME280_pressure;Samples;Min_cycle;Max_cycle;Signal;HPM_P1;HPM_P2
2022/11/03 00:00:50;;;;;;;2.95;0.85;;;11.30;99.90;;;;;;4715574;30;20156;-66
2022/11/03 00:03:15;;;;;;;5.63;0.88;;;11.30;99.90;;;;;;4725629;30;20068;-66
2022/11/03 00:08:25;;;;;;;5.18;1.10;;;11.30;99.90;;;;;;4755555;30;20066;-66
2022/11/03 00:10:51;;;;;;;5.53;1.00;;;11.20;99.90;;;;;;4770697;30;20393;-66
2022/11/03 00:13:16;;;;;;;5.28;0.85;;;11.30;99.90;;;;;;4754607;30;20139;-66
2022/11/03 00:15:48;;;;;;;4.22;0.85;;;11.30;99.90;;;;;;4770479;30;20163;-66
2022/11/03 00:18:14;;;;;;;5.00;1.00;;;11.20;99.90;;;;;;4754496;30;20051;-66
2022/11/03 00:20:39;;;;;;;6.57;1.10;;;11.20;99.90;;;;;;4754500;30;20067;-66
2022/11/03 00:23:05;;;;;;;5.07;1.02;;;11.30;99.90;;;;;;4754215;30;20059;-67
2022/11/03 00:25:31;;;;;;;5.40;1.05;;;11.20;99.90;;;;;;4770392;30;20138;-66
2022/11/03 00:27:57;;;;;;;8.15;1.10;;;11.30;99.90;;;;;;4739965;30;20083;-66
2022/11/03 00:30:22;;;;;;;7.03;1.20;;;11.50;99.90;;;;;;4754486;30;20185;-66
2022/11/03 00:32:48;;;;;;;6.22;1.40;;;11.50;99.90;;;;;;4770251;30;20121;-66
2022/11/03 00:35:14;;;;;;;5.43;1.20;;;11.40;99.90;;;;;;4770302;30;20055;-66
2022/11/03 00:37:39;;;;;;;5.07;1.33;;;11.20;99.90;;;;;;4770027;30;20095;-66
2022/11/03 00:40:06;;;;;;;6.22;0.95;;;11.50;99.90;;;;;;4771056;30;20132;-66
2022/11/03 00:42:33;;;;;;;6.25;1.00;;;11.30;99.90;;;;;;4770248;30;20054;-66
2022/11/03 00:44:59;;;;;;;8.77;1.08;;;11.20;99.90;;;;;;4770527;30;20159;-67
2022/11/03 00:47:25;;;;;;;7.00;1.13;;;11.20;99.90;;;;;;4770223;30;20134;-67
2022/11/03 00:49:51;;;;;;;7.10;0.95;;;11.20;99.90;;;;;;4770264;30;20058;-66
2022/11/03 00:52:16;;;;;;;10.73;1.20;;;11.20;99.90;;;;;;4770316;30;20051;-66
2022/11/03 00:54:42;;;;;;;5.05;0.93;;;11.10;99.90;;;;;;4754476;30;20047;-66
2022/11/03 00:57:08;;;;;;;6.65;1.10;;;11.70;99.90;;;;;;4754249;30;20538;-66
2022/11/03 00:59:33;;;;;;;5.78;1.00;;;11.30;99.90;;;;;;4770369;30;20141;-66
2022/11/03 01:01:59;;;;;;;7.90;1.00;;;11.30;99.90;;;;;;4770090;30;20048;-66
2022/11/03 01:07:09;;;;;;;6.68;1.13;;;11.20;99.90;;;;;;4770600;30;20063;-67
2022/11/03 01:09:39;;;;;;;7.15;1.00;;;11.20;99.90;;;;;;4754058;30;20051;-67
2022/11/03 01:12:08;;;;;;;5.13;1.08;;;11.20;99.90;;;;;;4754899;30;20097;-67
2022/11/03 01:14:46;;;;;;;5.63;1.00;;;11.10;99.90;;;;;;4771948;30;20051;-67
2022/11/03 01:17:23;;;;;;;5.25;1.27;;;11.30;99.90;;;;;;4773170;30;20488;-67
2022/11/03 01:19:49;;;;;;;5.20;0.90;;;11.10;99.90;;;;;;4773721;30;20436;-67
2022/11/03 01:22:16;;;;;;;6.95;1.00;;;11.20;99.90;;;;;;4772643;30;20071;-67
2022/11/03 01:24:43;;;;;;;7.85;1.10;;;11.10;99.90;;;;;;4773041;30;20404;-67
2022/11/03 01:27:12;;;;;;;5.38;1.05;;;11.10;99.90;;;;;;4773216;30;20509;-67
2022/11/03 01:29:38;;;;;;;7.57;1.27;;;11.30;99.90;;;;;;4772982;30;20175;-67
2022/11/03 01:32:04;;;;;;;5.80;1.00;;;11.10;99.90;;;;;;4756957;30;20105;-67
2022/11/03 01:34:30;;;;;;;4.97;0.95;;;11.10;99.90;;;;;;4772898;30;20394;-67
2022/11/03 01:36:55;;;;;;;4.78;1.20;;;11.20;99.90;;;;;;4773383;30;20059;-67
2022/11/03 01:39:21;;;;;;;4.65;0.90;;;11.00;99.90;;;;;;4772779;30;20084;-67
2022/11/03 01:41:49;;;;;;;6.85;1.15;;;11.10;99.90;;;;;;4772484;30;20124;-67
2022/11/03 01:44:14;;;;;;;11.15;1.30;;;11.10;99.90;;;;;;4772901;30;20051;-66
2022/11/03 01:46:40;;;;;;;7.28;1.48;;;11.30;99.90;;;;;;4772623;30;20370;-67
2022/11/03 01:49:13;;;;;;;5.20;0.93;;;11.00;99.90;;;;;;4772652;30;20047;-67
2022/11/03 01:51:42;;;;;;;6.75;1.00;;;11.40;99.90;;;;;;4756938;30;20098;-67
2022/11/03 01:54:14;;;;;;;5.78;0.90;;;11.00;99.90;;;;;;4772796;30;20083;-66
2022/11/03 01:56:45;;;;;;;5.45;1.15;;;11.10;99.90;;;;;;4756606;30;20094;-66
2022/11/03 01:59:11;;;;;;;6.47;1.30;;;11.00;99.90;;;;;;4756987;30;20147;-67
2022/11/03 02:01:37;;;;;;;8.02;1.00;;;11.10;99.90;;;;;;4772420;30;20052;-67
2022/11/03 02:04:10;;;;;;;7.60;1.05;;;11.10;99.90;;;;;;4757334;30;20079;-66
2022/11/03 02:06:36;;;;;;;5.55;1.40;;;11.00;99.90;;;;;;4772427;30;20059;-66
2022/11/03 02:09:04;;;;;;;6.80;1.17;;;11.20;99.90;;;;;;4772303;30;20051;-66
2022/11/03 02:14:16;;;;;;;7.55;1.35;;;11.10;99.90;;;;;;4772242;30;20060;-66
2022/11/03 02:16:48;;;;;;;7.35;0.95;;;11.00;99.90;;;;;;4772436;30;20405;-67
2022/11/03 02:19:34;;;;;;;5.07;1.80;;;11.30;99.90;;;;;;4772201;30;20134;-66
2022/11/03 02:22:30;;;;;;;3.95;1.10;;;11.00;99.90;;;;;;4771965;30;20518;-67
2022/11/03 02:25:08;;;;;;;7.72;1.20;;;10.90;99.90;;;;;;4771255;30;20064;-67
2022/11/03 02:27:34;;;;;;;5.63;0.90;;;10.80;99.90;;;;;;4757033;30;20062;-67
2022/11/03 02:29:59;;;;;;;6.57;1.38;;;10.80;99.90;;;;;;4772427;30;20055;-66
2022/11/03 02:32:35;;;;;;;8.02;1.10;;;11.00;99.90;;;;;;4756016;30;20152;-66
2022/11/03 02:35:11;;;;;;;7.80;1.35;;;10.70;99.90;;;;;;4755910;30;20059;-67
2022/11/03 02:37:42;;;;;;;4.95;1.17;;;10.70;99.90;;;;;;4756358;30;20058;-67
2022/11/03 02:40:33;;;;;;;6.70;1.17;;;11.10;99.90;;;;;;4771834;30;20048;-66
2022/11/03 02:43:00;;;;;;;9.40;1.58;;;10.60;99.90;;;;;;4771801;30;20048;-66
2022/11/03 02:45:27;;;;;;;5.45;1.20;;;10.90;99.90;;;;;;4755814;30;20073;-67
2022/11/03 02:47:57;;;;;;;6.70;1.08;;;10.60;99.90;;;;;;4771627;30;20401;-66
2022/11/03 02:50:27;;;;;;;5.82;0.98;;;10.50;99.90;;;;;;4755609;30;20124;-67
2022/11/03 02:52:53;;;;;;;7.60;1.50;;;10.60;99.90;;;;;;4771384;30;20095;-67
2022/11/03 02:55:57;;;;;;;7.85;1.25;;;10.50;99.90;;;;;;4771526;30;20051;-66
2022/11/03 02:58:40;;;;;;;4.43;1.00;;;10.50;99.90;;;;;;4755220;30;20066;-66
2022/11/03 03:01:16;;;;;;;6.57;1.13;;;10.50;99.90;;;;;;4771778;30;20051;-66
2022/11/03 03:03:47;;;;;;;4.38;1.10;;;10.50;99.90;;;;;;4755670;30;20134;-66
2022/11/03 03:06:27;;;;;;;8.43;1.00;;;10.90;99.90;;;;;;4755861;30;20059;-67
2022/11/03 03:08:59;;;;;;;3.92;1.23;;;10.50;99.90;;;;;;4771366;30;20134;-66
2022/11/03 03:11:36;;;;;;;9.30;1.58;;;10.50;99.90;;;;;;4755361;30;20056;-66
2022/11/03 03:14:10;;;;;;;4.68;1.45;;;10.40;99.90;;;;;;4755281;30;20051;-66
2022/11/03 03:16:54;;;;;;;9.27;1.60;;;10.70;99.90;;;;;;4756278;30;20056;-66
2022/11/03 03:19:29;;;;;;;8.70;1.10;;;10.50;99.90;;;;;;4756218;30;20064;-66
2022/11/03 03:21:58;;;;;;;6.20;1.38;;;10.40;99.90;;;;;;4754990;30;20513;-66
2022/11/03 03:24:43;;;;;;;4.38;0.93;;;10.40;99.90;;;;;;4771076;30;20430;-66
2022/11/03 03:27:11;;;;;;;7.05;1.40;;;10.30;99.90;;;;;;4771052;30;20070;-66
2022/11/03 03:29:49;;;;;;;9.05;1.67;;;10.60;99.90;;;;;;4770983;30;20120;-66
2022/11/03 03:32:18;;;;;;;7.50;1.52;;;10.40;99.90;;;;;;4755852;30;20051;-66
2022/11/03 03:34:47;;;;;;;10.10;1.55;;;10.70;99.90;;;;;;4771417;30;20134;-66
2022/11/03 03:37:16;;;;;;;8.50;2.45;;;10.70;99.90;;;;;;4770801;30;20056;-66
2022/11/03 03:39:47;;;;;;;5.28;1.40;;;10.70;99.90;;;;;;4770841;30;20047;-66
2022/11/03 03:42:14;;;;;;;7.78;1.95;;;10.40;99.90;;;;;;4771387;30;20055;-66
2022/11/03 03:44:41;;;;;;;5.13;1.20;;;10.50;99.90;;;;;;4770762;30;20059;-66
2022/11/03 03:47:40;;;;;;;7.05;1.80;;;10.50;99.90;;;;;;4770743;30;20133;-67
2022/11/03 03:50:07;;;;;;;5.45;1.50;;;10.40;99.90;;;;;;4755374;30;20056;-66
2022/11/03 03:52:36;;;;;;;4.95;1.33;;;10.40;99.90;;;;;;4740045;30;20427;-67
2022/11/03 03:55:02;;;;;;;7.60;1.50;;;10.50;99.90;;;;;;4770686;30;20051;-66
2022/11/03 03:57:30;;;;;;;6.05;1.10;;;10.50;99.90;;;;;;4770914;30;20090;-66
2022/11/03 03:59:56;;;;;;;6.68;1.50;;;10.40;99.90;;;;;;4755702;30;20109;-66
2022/11/03 04:02:22;;;;;;;11.15;1.85;;;10.70;99.90;;;;;;4770575;30;20051;-66
2022/11/03 04:04:47;;;;;;;8.73;1.48;;;10.40;99.90;;;;;;4770558;30;20066;-66
2022/11/03 04:07:58;;;;;;;6.88;1.20;;;10.50;99.90;;;;;;4770844;30;20052;-66
2022/11/03 04:09:59;;;;;;;6.93;1.30;;;10.50;99.90;;;;;;4754993;30;20066;-66
2022/11/03 04:23:25;;;;;;;6.88;1.80;;;10.80;99.90;;;;;;4770401;30;20142;-66
2022/11/03 04:25:54;;;;;;;7.30;1.45;;;10.70;99.90;;;;;;4740024;30;20186;-66
2022/11/03 04:28:20;;;;;;;5.70;1.35;;;10.50;99.90;;;;;;4770357;30;20067;-67
2022/11/03 04:30:46;;;;;;;6.13;2.08;;;10.70;99.90;;;;;;4754513;30;20130;-66
2022/11/03 04:33:17;;;;;;;5.70;1.08;;;10.90;99.90;;;;;;4770310;30;20188;-67
2022/11/03 04:35:43;;;;;;;7.00;1.42;;;10.40;99.90;;;;;;4754389;30;20055;-66
2022/11/03 04:38:22;;;;;;;7.68;1.00;;;10.40;99.90;;;;;;4770504;30;20520;-67
2022/11/03 04:40:56;;;;;;;5.95;1.02;;;10.50;99.90;;;;;;4754681;30;20405;-67
2022/11/03 04:43:30;;;;;;;8.38;1.30;;;10.30;99.90;;;;;;4754343;30;20052;-66
2022/11/03 04:45:55;;;;;;;3.88;1.10;;;10.40;99.90;;;;;;4754267;30;20067;-66
2022/11/03 04:48:22;;;;;;;7.15;1.65;;;10.30;99.90;;;;;;4770573;30;20055;-67
2022/11/03 04:50:52;;;;;;;5.97;1.42;;;10.60;99.90;;;;;;4757954;30;20059;-67
2022/11/03 04:53:19;;;;;;;8.45;1.40;;;10.30;99.90;;;;;;4742813;30;20477;-67
2022/11/03 04:55:48;;;;;;;3.88;0.90;;;10.70;99.90;;;;;;4757806;30;20485;-66
2022/11/03 04:58:20;;;;;;;4.40;0.98;;;10.30;99.90;;;;;;4758112;30;20059;-67
2022/11/03 05:00:51;;;;;;;5.57;1.63;;;10.30;99.90;;;;;;4758414;30;20056;-67
2022/11/03 05:03:26;;;;;;;5.53;1.27;;;10.40;99.90;;;;;;4773453;30;20051;-66
2022/11/03 05:05:52;;;;;;;6.10;1.27;;;10.50;99.90;;;;;;4773133;30;20097;-66
2022/11/03 05:08:19;;;;;;;4.93;1.17;;;10.30;99.90;;;;;;4773499;30;20060;-66
2022/11/03 05:10:45;;;;;;;8.68;1.75;;;10.30;99.90;;;;;;4773948;30;20138;-67
2022/11/03 05:13:19;;;;;;;3.40;1.00;;;10.30;99.90;;;;;;4773330;30;20052;-67
2022/11/03 05:15:48;;;;;;;7.20;1.30;;;10.50;99.90;;;;;;4757660;30;20066;-67
2022/11/03 05:18:20;;;;;;;5.43;1.30;;;10.30;99.90;;;;;;4773307;30;20052;-67
2022/11/03 05:20:53;;;;;;;6.60;1.27;;;10.30;99.90;;;;;;4773125;30;20059;-67
2022/11/03 05:23:20;;;;;;;;;;;10.30;99.90;;;;;;4774431;30;20383;-67
2022/11/03 05:25:52;;;;;;;4.95;1.30;;;10.30;99.90;;;;;;4773216;30;19930;-67
2022/11/03 05:28:23;;;;;;;6.97;1.45;;;10.40;99.90;;;;;;4773973;30;20048;-67
2022/11/03 05:30:49;;;;;;;6.68;1.27;;;10.30;99.90;;;;;;4773099;30;20121;-67
2022/11/03 05:33:30;;;;;;;6.68;1.20;;;10.40;99.90;;;;;;4773046;30;20126;-67
2022/11/03 05:35:59;;;;;;;6.63;1.30;;;10.40;99.90;;;;;;4773576;30;20048;-67
2022/11/03 05:38:30;;;;;;;5.22;1.10;;;10.40;99.90;;;;;;4773012;30;20056;-67
2022/11/03 05:40:56;;;;;;;6.75;1.33;;;10.70;99.90;;;;;;4757503;30;20063;-67
2022/11/03 05:43:22;;;;;;;6.10;1.10;;;10.40;99.90;;;;;;4772903;30;20493;-67
2022/11/03 05:45:54;;;;;;;6.53;1.02;;;10.90;99.90;;;;;;4772848;30;20389;-67
2022/11/03 05:48:36;;;;;;;8.65;2.05;;;10.40;99.90;;;;;;4772869;30;20067;-67
2022/11/03 05:51:14;;;;;;;3.25;0.73;;;10.40;99.90;;;;;;4772722;30;20074;-67
2022/11/03 05:53:44;;;;;;;6.65;1.20;;;10.40;99.90;;;;;;4757543;30;20059;-67
2022/11/03 05:56:17;;;;;;;7.30;1.20;;;10.80;99.90;;;;;;4772678;30;20108;-67
2022/11/03 05:58:44;;;;;;;4.90;1.20;;;10.40;99.90;;;;;;4757535;30;20067;-67
2022/11/03 06:01:24;;;;;;;6.07;1.40;;;10.60;99.90;;;;;;4772215;30;20087;-67
2022/11/03 06:03:49;;;;;;;7.25;1.10;;;10.40;99.90;;;;;;4772443;30;20059;-66
2022/11/03 06:06:23;;;;;;;7.28;1.40;;;10.40;99.90;;;;;;4772950;30;20059;-67
2022/11/03 06:08:50;;;;;;;5.43;1.30;;;10.40;99.90;;;;;;4772880;30;20108;-67
2022/11/03 06:11:26;;;;;;;8.00;1.40;;;10.40;99.90;;;;;;4772234;30;20059;-66
2022/11/03 06:13:55;;;;;;;4.15;1.20;;;10.40;99.90;;;;;;4772357;30;20044;-67
2022/11/03 06:16:29;;;;;;;2.90;1.00;;;10.70;99.90;;;;;;4772244;30;20066;-67
2022/11/03 06:18:55;;;;;;;4.70;1.20;;;10.40;99.90;;;;;;4772287;30;20094;-67
2022/11/03 06:21:23;;;;;;;7.13;1.67;;;10.60;99.90;;;;;;4771662;30;20090;-67
2022/11/03 06:23:50;;;;;;;7.50;1.50;;;10.40;99.90;;;;;;4772577;30;20151;-67
2022/11/03 06:26:19;;;;;;;5.57;1.23;;;10.40;99.90;;;;;;4771788;30;20501;-67
2022/11/03 06:28:46;;;;;;;7.88;1.25;;;10.60;99.90;;;;;;4757049;30;20467;-67
2022/11/03 06:31:22;;;;;;;4.28;0.98;;;10.30;99.90;;;;;;4771846;30;20130;-67
2022/11/03 06:33:50;;;;;;;6.55;1.10;;;10.40;99.90;;;;;;4771915;30;20047;-66
2022/11/03 06:36:19;;;;;;;6.00;1.20;;;10.40;99.90;;;;;;4756041;30;20054;-66
2022/11/03 06:38:54;;;;;;;5.05;0.90;;;10.40;99.90;;;;;;4771884;30;20062;-67
2022/11/03 06:41:24;;;;;;;10.00;1.20;;;10.50;99.90;;;;;;4741194;30;20105;-67
2022/11/03 06:43:50;;;;;;;6.18;1.20;;;10.40;99.90;;;;;;4771986;30;20060;-66
2022/11/03 06:46:22;;;;;;;3.90;1.13;;;10.60;99.90;;;;;;4771678;30;20065;-67
2022/11/03 06:48:49;;;;;;;6.13;1.42;;;10.30;99.90;;;;;;4756699;30;20203;-67
2022/11/03 06:51:19;;;;;;;6.70;1.20;;;10.30;99.90;;;;;;4771258;30;20634;-67
2022/11/03 06:53:46;;;;;;;3.63;0.90;;;10.30;99.90;;;;;;4771732;30;20575;-67
2022/11/03 06:56:15;;;;;;;7.63;1.08;;;10.50;99.90;;;;;;4771508;30;20052;-67
2022/11/03 06:58:42;;;;;;;5.68;1.20;;;10.50;99.90;;;;;;4771484;30;20148;-67
2022/11/03 07:01:29;;;;;;;6.70;1.20;;;10.30;99.90;;;;;;4771713;30;20109;-67
2022/11/03 07:04:11;;;;;;;6.07;1.10;;;10.30;99.90;;;;;;4771625;30;20516;-66
2022/11/03 07:06:37;;;;;;;4.78;1.85;;;10.40;99.90;;;;;;4771705;30;20067;-66
2022/11/03 07:09:06;;;;;;;8.18;1.17;;;10.30;99.90;;;;;;4771336;30;20413;-67
2022/11/03 07:11:39;;;;;;;6.10;1.00;;;10.40;99.90;;;;;;4770621;30;20051;-67
2022/11/03 07:14:15;;;;;;;7.05;1.50;;;10.40;99.90;;;;;;4771017;30;20515;-67
2022/11/03 07:16:44;;;;;;;6.88;1.30;;;10.50;99.90;;;;;;4771140;30;20051;-67
2022/11/03 07:19:20;;;;;;;9.52;1.27;;;10.60;99.90;;;;;;4771137;30;20090;-66
2022/11/03 07:21:56;;;;;;;7.25;1.10;;;10.70;99.90;;;;;;4771705;30;20397;-67
2022/11/03 07:24:37;;;;;;;3.72;0.90;;;10.50;99.90;;;;;;4755305;30;20510;-67
2022/11/03 07:27:36;;;;;;;6.45;1.08;;;10.40;99.90;;;;;;4771267;30;20124;-67
2022/11/03 07:30:22;;;;;;;8.32;1.23;;;10.40;99.90;;;;;;4755232;30;20055;-66
2022/11/03 07:32:53;;;;;;;8.88;1.48;;;10.40;99.90;;;;;;4770837;30;20043;-67
2022/11/03 07:35:27;;;;;;;7.53;1.48;;;10.60;99.90;;;;;;4770890;30;20056;-66
2022/11/03 07:37:54;;;;;;;5.25;1.15;;;10.40;99.90;;;;;;4771159;30;20413;-66
2022/11/03 07:40:25;;;;;;;7.43;1.33;;;10.60;99.90;;;;;;4740280;30;20569;-67
2022/11/03 07:42:55;;;;;;;6.03;1.25;;;10.50;99.90;;;;;;4771022;30;20059;-67
2022/11/03 07:45:36;;;;;;;7.15;1.65;;;10.50;99.90;;;;;;4771014;30;20405;-67
2022/11/03 07:48:09;;;;;;;5.32;1.10;;;10.60;99.90;;;;;;4771551;30;20411;-67
2022/11/03 07:50:36;;;;;;;5.70;1.65;;;10.80;99.90;;;;;;4770731;30;20056;-67
2022/11/03 07:53:17;;;;;;;7.05;1.23;;;10.60;99.90;;;;;;4740212;30;20051;-67
2022/11/03 07:55:46;;;;;;;5.35;1.10;;;10.60;99.90;;;;;;4755154;30;20489;-67
2022/11/03 07:58:33;;;;;;;4.35;1.20;;;10.80;99.90;;;;;;4755114;30;20138;-67
2022/11/03 08:01:00;;;;;;;5.50;1.65;;;10.70;99.90;;;;;;4770641;30;20048;-67
2022/11/03 08:03:42;;;;;;;4.85;1.42;;;10.70;99.90;;;;;;4726533;30;20067;-67
2022/11/03 08:06:08;;;;;;;5.85;1.30;;;10.80;99.90;;;;;;4771331;30;20055;-67
2022/11/03 08:08:33;;;;;;;5.28;1.08;;;10.90;99.90;;;;;;4770553;30;20054;-67
2022/11/03 08:10:59;;;;;;;5.53;1.30;;;10.90;99.90;;;;;;4770530;30;20055;-67
2022/11/03 08:13:24;;;;;;;4.88;1.20;;;10.90;99.90;;;;;;4770417;30;20044;-67
2022/11/03 08:15:50;;;;;;;4.50;1.63;;;11.00;99.90;;;;;;4755025;30;20113;-67
2022/11/03 08:18:16;;;;;;;6.63;0.98;;;11.20;99.90;;;;;;4770464;30;20062;-67
2022/11/03 08:20:41;;;;;;;3.72;1.00;;;11.10;99.90;;;;;;4754775;30;20432;-67
2022/11/03 08:23:07;;;;;;;4.22;1.10;;;11.00;99.90;;;;;;4772024;30;20434;-67
2022/11/03 08:25:33;;;;;;;7.43;1.55;;;11.10;99.90;;;;;;4774034;30;20064;-66
2022/11/03 08:28:00;;;;;;;6.03;1.52;;;11.10;99.90;;;;;;4774049;30;20051;-67
2022/11/03 08:30:26;;;;;;;6.47;1.92;;;11.20;99.90;;;;;;4773996;30;20464;-67
2022/11/03 08:32:51;;;;;;;5.28;1.30;;;11.20;99.90;;;;;;4773919;30;20052;-67
2022/11/03 08:35:17;;;;;;;5.03;1.30;;;11.20;99.90;;;;;;4773884;30;20048;-67
2022/11/03 08:37:43;;;;;;;7.15;1.45;;;11.30;99.90;;;;;;4773875;30;20051;-67
2022/11/03 08:40:09;;;;;;;9.40;1.30;;;11.30;99.90;;;;;;4774455;30;20062;-67
2022/11/03 08:42:35;;;;;;;5.38;1.30;;;11.40;99.90;;;;;;4774162;30;20079;-67
2022/11/03 08:45:01;;;;;;;6.75;1.40;;;11.40;99.90;;;;;;4774408;30;20460;-67
2022/11/03 08:47:26;;;;;;;6.57;1.40;;;11.40;99.90;;;;;;4773813;30;20516;-67
2022/11/03 08:49:52;;;;;;;7.45;1.25;;;11.50;99.90;;;;;;4743294;30;20051;-67
2022/11/03 08:52:18;;;;;;;7.00;1.20;;;11.60;99.90;;;;;;4773668;30;20063;-67
2022/11/03 08:54:43;;;;;;;5.68;1.52;;;11.40;99.90;;;;;;4743242;30;20056;-66
2022/11/03 08:57:09;;;;;;;5.55;1.70;;;11.50;99.90;;;;;;4757985;30;20138;-67
2022/11/03 08:59:34;;;;;;;5.93;1.40;;;11.60;99.90;;;;;;4758480;30;20052;-67
2022/11/03 09:02:00;;;;;;;4.45;1.17;;;11.90;99.90;;;;;;4774126;30;20055;-67
2022/11/03 09:04:26;;;;;;;6.68;1.70;;;11.80;99.90;;;;;;4773563;30;20056;-67
2022/11/03 09:06:51;;;;;;;8.48;1.38;;;11.50;99.90;;;;;;4758321;30;20094;-67
2022/11/03 09:09:17;;;;;;;6.80;2.00;;;11.50;99.90;;;;;;4773426;30;20481;-66
2022/11/03 09:11:43;;;;;;;5.18;1.42;;;11.50;99.90;;;;;;4773384;30;20378;-67
2022/11/03 09:14:08;;;;;;;8.52;1.38;;;11.60;99.90;;;;;;4773366;30;20056;-67
2022/11/03 09:16:34;;;;;;;9.57;2.15;;;11.70;99.90;;;;;;4773336;30;20055;-67
2022/11/03 09:18:59;;;;;;;7.65;1.60;;;11.60;99.90;;;;;;4757407;30;20113;-66
2022/11/03 09:21:25;;;;;;;7.43;1.33;;;12.00;99.90;;;;;;4757539;30;20051;-66
2022/11/03 09:23:51;;;;;;;6.20;1.60;;;11.60;99.90;;;;;;4773604;30;20138;-66
2022/11/03 09:26:16;;;;;;;6.55;1.73;;;11.80;99.90;;;;;;4773140;30;20052;-66
2022/11/03 09:28:42;;;;;;;5.97;1.23;;;11.80;99.90;;;;;;4773541;30;20393;-66
2022/11/03 09:31:08;;;;;;;5.60;1.35;;;11.90;99.90;;;;;;4773093;30;20051;-67
2022/11/03 09:33:33;;;;;;;6.03;1.42;;;11.90;99.90;;;;;;4757170;30;20098;-66
2022/11/03 09:36:01;;;;;;;6.20;1.35;;;12.00;99.90;;;;;;4772361;30;20068;-66
2022/11/03 09:38:26;;;;;;;4.55;1.50;;;12.00;99.90;;;;;;4772898;30;20474;-67
2022/11/03 09:40:54;;;;;;;5.25;1.33;;;12.00;99.90;;;;;;4772616;30;20493;-67
2022/11/03 09:43:19;;;;;;;9.05;1.50;;;12.40;99.90;;;;;;4773165;30;20047;-67
2022/11/03 09:45:45;;;;;;;6.32;1.38;;;12.10;99.90;;;;;;4773337;30;20420;-67
2022/11/03 09:48:11;;;;;;;5.32;1.70;;;12.30;99.90;;;;;;4773333;30;20134;-67
2022/11/03 09:50:38;;;;;;;6.85;1.42;;;12.40;99.90;;;;;;4773545;30;20053;-67
2022/11/03 09:53:04;;;;;;;7.20;1.40;;;12.30;99.90;;;;;;4756672;30;20378;-67
2022/11/03 09:55:30;;;;;;;5.60;1.40;;;12.30;99.90;;;;;;4773179;30;20097;-66
2022/11/03 09:58:00;;;;;;;8.18;1.80;;;12.30;99.90;;;;;;4772645;30;20104;-66
2022/11/03 10:00:26;;;;;;;5.93;1.23;;;12.40;99.90;;;;;;4772632;30;20440;-67
2022/11/03 10:02:53;;;;;;;6.18;1.40;;;12.50;99.90;;;;;;4772582;30;20097;-66
2022/11/03 10:05:26;;;;;;;7.63;1.42;;;12.40;99.90;;;;;;4772244;30;20576;-67
2022/11/03 10:07:57;;;;;;;3.85;1.17;;;12.40;99.90;;;;;;4756844;30;20114;-66
2022/11/03 10:10:24;;;;;;;7.68;1.55;;;12.80;99.90;;;;;;4772498;30;20094;-67
2022/11/03 10:12:51;;;;;;;9.02;1.63;;;12.50;99.90;;;;;;4771909;30;20056;-67
2022/11/03 10:15:20;;;;;;;7.38;1.73;;;12.50;99.90;;;;;;4757313;30;20132;-68
2022/11/03 10:17:46;;;;;;;6.35;1.58;;;12.60;99.90;;;;;;4772250;30;20064;-67
2022/11/03 10:20:14;;;;;;;7.05;1.48;;;12.60;99.90;;;;;;4773037;30;20443;-67
2022/11/03 10:22:41;;;;;;;7.85;1.58;;;12.60;99.90;;;;;;4772061;30;20094;-67
2022/11/03 10:25:33;;;;;;;7.07;1.65;;;12.70;99.90;;;;;;4756338;30;20569;-67
2022/11/03 10:28:18;;;;;;;5.72;1.55;;;13.00;99.90;;;;;;4772162;30;20095;-67
2022/11/03 10:31:00;;;;;;;8.13;1.38;;;12.90;99.90;;;;;;4756166;30;20105;-68
2022/11/03 10:33:32;;;;;;;7.30;1.55;;;12.90;99.90;;;;;;4741227;30;20052;-67
2022/11/03 10:36:25;;;;;;;6.93;1.00;;;12.90;99.90;;;;;;4756069;30;20056;-67
2022/11/03 10:38:51;;;;;;;7.03;1.67;;;13.00;99.90;;;;;;4772525;30;20393;-67
2022/11/03 10:41:20;;;;;;;6.10;1.13;;;13.00;99.90;;;;;;4771895;30;20501;-67
2022/11/03 10:44:18;;;;;;;8.50;1.27;;;13.10;99.90;;;;;;4771739;30;20051;-67
2022/11/03 10:47:02;;;;;;;4.05;1.33;;;13.20;99.90;;;;;;4756701;30;20077;-67
2022/11/03 10:49:30;;;;;;;6.55;1.27;;;13.10;99.90;;;;;;4772311;30;20048;-67
2022/11/03 10:52:26;;;;;;;6.50;1.10;;;13.40;99.90;;;;;;4755880;30;20055;-67
2022/11/03 10:54:53;;;;;;;4.78;1.23;;;13.40;99.90;;;;;;4755842;30;20070;-67
2022/11/03 10:57:21;;;;;;;10.68;1.20;;;13.20;99.90;;;;;;4755735;30;20116;-68
2022/11/03 10:59:49;;;;;;;6.22;1.30;;;13.40;99.90;;;;;;4771555;30;20074;-67
2022/11/03 11:02:24;;;;;;;3.47;1.30;;;13.70;99.90;;;;;;4771160;30;20043;-69
2022/11/03 11:05:00;;;;;;;5.25;1.20;;;13.80;99.90;;;;;;4755418;30;20047;-67
2022/11/03 11:07:38;;;;;;;7.40;1.50;;;13.70;99.90;;;;;;5139050;27;1304730;-66
2022/11/03 11:10:10;;;;;;;6.63;1.10;;;13.60;99.90;;;;;;5160613;27;20051;-65
2022/11/03 11:12:36;;;;;;;5.55;1.55;;;13.80;99.90;;;;;;5160562;27;20043;-66
2022/11/03 11:15:23;;;;;;;6.38;1.38;;;13.80;99.90;;;;;;5162157;27;20042;-65
2022/11/03 11:17:49;;;;;;;5.43;1.10;;;13.80;99.90;;;;;;5141699;27;20054;-66
2022/11/03 11:20:40;;;;;;;6.90;1.25;;;13.90;99.90;;;;;;5144334;27;20050;-66
2022/11/03 11:23:30;;;;;;;9.07;1.98;;;13.80;99.90;;;;;;5103977;28;20062;-65
2022/11/03 11:26:08;;;;;;;5.38;1.10;;;13.90;99.90;;;;;;5105153;28;20585;-66
2022/11/03 11:28:45;;;;;;;4.13;1.00;;;13.90;99.90;;;;;;5104450;28;20043;-66
2022/11/03 11:31:26;;;;;;;6.35;1.13;;;13.90;99.90;;;;;;5106857;28;20043;-65
2022/11/03 11:34:18;;;;;;;5.32;1.25;;;14.10;99.90;;;;;;5088177;28;20044;-65
2022/11/03 11:37:09;;;;;;;2.97;0.98;;;13.90;99.90;;;;;;5101331;28;20136;-66
2022/11/03 11:39:39;;;;;;;4.88;1.05;;;14.00;99.90;;;;;;5089187;28;20162;-66
2022/11/03 11:42:18;;;;;;;4.95;1.27;;;13.90;99.90;;;;;;5090362;28;20048;-66
2022/11/03 11:47:43;;;;;;;5.43;1.00;;;14.00;99.90;;;;;;5108131;28;20087;-65
2022/11/03 11:50:09;;;;;;;6.57;1.30;;;14.00;99.90;;;;;;5108312;28;20043;-66
2022/11/03 11:53:03;;;;;;;6.53;1.17;;;14.00;99.90;;;;;;5107192;28;20051;-66
2022/11/03 11:55:47;;;;;;;4.20;1.10;;;14.00;99.90;;;;;;5154019;27;20049;-67
2022/11/03 11:58:23;;;;;;;4.18;1.10;;;14.00;99.90;;;;;;5172207;27;20508;-65
2022/11/03 12:00:58;;;;;;;4.03;0.95;;;14.00;99.90;;;;;;5171943;27;20129;-66
2022/11/03 12:03:28;;;;;;;3.63;0.98;;;14.00;99.90;;;;;;5172481;27;20085;-65
2022/11/03 12:05:54;;;;;;;7.43;1.30;;;14.00;99.90;;;;;;5153172;27;20451;-66
2022/11/03 12:08:27;;;;;;;7.05;1.00;;;14.00;99.90;;;;;;5171849;27;20110;-67
2022/11/03 12:10:58;;;;;;;3.45;1.25;;;14.00;99.90;;;;;;5172619;27;20093;-67
2022/11/03 12:13:34;;;;;;;6.05;1.13;;;14.00;99.90;;;;;;5153602;27;20143;-67
2022/11/03 12:16:00;;;;;;;5.43;1.50;;;14.00;99.90;;;;;;5171780;27;20505;-66
2022/11/03 12:18:38;;;;;;;4.50;1.00;;;14.00;99.90;;;;;;5142552;27;20138;-66
2022/11/03 12:21:09;;;;;;;3.30;0.82;;;14.00;99.90;;;;;;5126795;27;20482;-67
2022/11/03 12:23:41;;;;;;;6.53;1.20;;;14.00;99.90;;;;;;5145452;27;20463;-66
2022/11/03 12:26:33;;;;;;;3.58;1.10;;;14.00;99.90;;;;;;5146034;27;20481;-66
2022/11/03 12:28:58;;;;;;;4.10;0.98;;;13.90;99.90;;;;;;5142659;27;20047;-66
2022/11/03 12:31:24;;;;;;;5.00;1.15;;;14.00;99.90;;;;;;5146427;27;20061;-67
2022/11/03 12:33:50;;;;;;;2.13;0.80;;;14.00;99.90;;;;;;5147459;27;20494;-67
2022/11/03 12:36:16;;;;;;;4.15;0.98;;;13.90;99.90;;;;;;5146179;27;20131;-66
2022/11/03 12:38:42;;;;;;;4.75;0.85;;;14.00;99.90;;;;;;5146480;27;20489;-66
2022/11/03 12:41:24;;;;;;;4.05;0.88;;;14.10;99.90;;;;;;5129571;27;20045;-66
2022/11/03 12:43:51;;;;;;;3.15;0.70;;;14.00;99.90;;;;;;5147102;27;20528;-67
2022/11/03 12:46:19;;;;;;;7.55;1.70;;;14.00;99.90;;;;;;5146154;27;20039;-66
2022/11/03 12:48:46;;;;;;;4.03;1.25;;;13.90;99.90;;;;;;5127839;27;20045;-68
2022/11/03 12:51:19;;;;;;;4.80;1.00;;;13.90;99.90;;;;;;5149565;27;20477;-67
2022/11/03 12:53:45;;;;;;;3.40;0.77;;;13.90;99.90;;;;;;5125504;27;20047;-66
2022/11/03 12:56:12;;;;;;;6.18;0.80;;;13.90;99.90;;;;;;5147182;27;20034;-67
2022/11/03 12:58:38;;;;;;;3.33;0.90;;;14.10;99.90;;;;;;5146723;27;20042;-66
2022/11/03 13:01:05;;;;;;;2.90;0.90;;;13.80;99.90;;;;;;5131788;27;20035;-66
2022/11/03 13:03:31;;;;;;;8.10;1.15;;;13.80;99.90;;;;;;5139112;27;20082;-66
2022/11/03 13:05:58;;;;;;;6.32;1.10;;;13.90;99.90;;;;;;5138651;27;20410;-66
2022/11/03 13:08:24;;;;;;;3.63;0.80;;;13.80;99.90;;;;;;5138607;27;20103;-67
2022/11/03 13:10:50;;;;;;;3.95;1.00;;;13.70;99.90;;;;;;5145623;27;20393;-66
2022/11/03 13:13:16;;;;;;;3.83;1.00;;;14.10;99.90;;;;;;5138620;27;20110;-67
2022/11/03 13:15:42;;;;;;;3.35;0.90;;;13.70;99.90;;;;;;5146972;27;20034;-67
2022/11/03 13:18:08;;;;;;;3.50;0.98;;;13.70;99.90;;;;;;5110154;27;20497;-66
2022/11/03 13:20:34;;;;;;;4.18;1.08;;;14.00;99.90;;;;;;5127919;27;20082;-66
2022/11/03 13:23:00;;;;;;;5.70;0.93;;;13.70;99.90;;;;;;5146559;27;20039;-67
2022/11/03 13:25:27;;;;;;;3.75;1.00;;;13.70;99.90;;;;;;5109726;27;20103;-67
2022/11/03 13:27:54;;;;;;;5.30;1.02;;;13.80;99.90;;;;;;5143377;27;20042;-66